パラオ の空港の天気 - METARとTAF

パラオ国際空港 ( PTRO / ROR ) - パラオ アイライ州
飛行場実況気象(Metar)
観測時間05/29 07:50 PWT (05/28 22:50 UTC)
風向・風速静穏 0m/s
視程10km以上
天気現象
少しの雲 雲底高度 240m
全天の8割程度の雲 雲底高度 430m
全天の8割程度の雲 雲底高度 3050m
全天を覆う雲 雲底高度 8530m
気温25℃
湿度89%
気圧1009hPa
METARPTRO 282250Z 00000KT 13SM FEW008 BKN014CB BKN100 OVC280 25/23 A2980 RMK CB ALQDS
過去の天気等 Google飛行場航空写真 Wunderground天気予報

過去48時間のMETAR

飛行場予報(TAF)
発表時間: 5/29 07:02 PWT (5/28 22:02 UTC)
予報対象時間: 29日7時 PWT ~ 30日3時 PWT
風向・風速南南東 5m/s
視程10km以上
天気現象周辺でしゅう雨
全天の4割程度の雲 雲底高度 460m
全天の8割程度の雲 雲底高度 3050m
29日8時 PWT ~ 29日10時 PWT に一時的に
風向・風速南 5m/s 瞬間風速 10m/s
視程6440m
天気現象しゅう雨
全天の8割程度の雲 雲底高度 460m
29日10時 PWT から
風向・風速南南東 5m/s
視程10km以上
全天の4割程度の雲 雲底高度 490m
全天の8割程度の雲 雲底高度 3050m
29日10時 PWT ~ 29日14時 PWT に一時的に
風向・風速不定 8m/s
視程6440m
天気現象しゅう雨
全天の8割程度の雲 雲底高度 460m
PTRO 282202Z 2822/2918 15010KT P6SM VCSH SCT015 BKN100
TEMPO 2823/2901 18010G20KT 4SM SHRA BKN015
FM290100 15010KT P6SM SCT016 BKN100
TEMPO 2901/2905 VRB15KT 4SM SHRA BKN015